Time;durP1;ratioP1;P1;durP2;ratioP2;P2;SDS_P1;SDS_P2;PMS_P1;PMS_P2;Temp;Humidity;BMP_temperature;BMP_pressure;BME280_temperature;BME280_humidity;BME280_pressure;Samples;Min_cycle;Max_cycle;Signal;HPM_P1;HPM_P2
2023/04/12 00:01:28;;;;;;;18.17;9.23;;;;;;;;;;5012486;28;20026;-66
2023/04/12 00:03:54;;;;;;;18.80;9.25;;;;;;;;;;5011752;28;20540;-64
2023/04/12 00:06:26;;;;;;;18.70;9.00;;;;;;;;;;5012572;28;20033;-64
2023/04/12 00:08:53;;;;;;;16.45;8.75;;;;;;;;;;5012398;28;20478;-68
2023/04/12 00:11:19;;;;;;;15.75;9.73;;;;;;;;;;5012607;28;20026;-66
2023/04/12 00:13:45;;;;;;;20.15;9.10;;;;;;;;;;5011724;28;20025;-65
2023/04/12 00:16:14;;;;;;;19.90;10.38;;;;;;;;;;5012376;28;20030;-63
2023/04/12 00:18:41;;;;;;;19.10;9.30;;;;;;;;;;5012516;28;20097;-69
2023/04/12 00:21:09;;;;;;;17.77;8.85;;;;;;;;;;5012300;28;20398;-65
2023/04/12 00:23:36;;;;;;;21.42;9.40;;;;;;;;;;5011670;28;20113;-65
2023/04/12 00:26:03;;;;;;;17.20;9.00;;;;;;;;;;5011092;28;20037;-65
2023/04/12 00:28:29;;;;;;;16.50;8.93;;;;;;;;;;5012078;28;20053;-68
2023/04/12 00:30:55;;;;;;;19.08;9.38;;;;;;;;;;5011955;28;20034;-67
2023/04/12 00:33:21;;;;;;;19.60;9.52;;;;;;;;;;5009128;28;20037;-66
2023/04/12 00:35:47;;;;;;;16.10;8.90;;;;;;;;;;5011828;28;20021;-66
2023/04/12 00:38:14;;;;;;;17.85;8.75;;;;;;;;;;5011650;28;20026;-67
2023/04/12 00:40:43;;;;;;;19.92;9.15;;;;;;;;;;5012036;28;20482;-66
2023/04/12 00:43:14;;;;;;;18.77;9.63;;;;;;;;;;5009741;28;20493;-65
2023/04/12 00:45:40;;;;;;;23.80;9.35;;;;;;;;;;5010535;28;20033;-66
2023/04/12 00:48:07;;;;;;;16.10;8.90;;;;;;;;;;5011703;28;20089;-66
2023/04/12 00:50:33;;;;;;;15.73;8.80;;;;;;;;;;5011801;28;20026;-66
2023/04/12 00:53:00;;;;;;;18.42;9.35;;;;;;;;;;5011462;28;20030;-66
2023/04/12 00:55:26;;;;;;;18.80;9.07;;;;;;;;;;5011519;28;20029;-65
2023/04/12 00:57:52;;;;;;;19.38;9.35;;;;;;;;;;5011561;28;20014;-65
2023/04/12 01:00:19;;;;;;;18.00;8.90;;;;;;;;;;5010290;28;20026;-67
2023/04/12 01:02:47;;;;;;;18.13;9.50;;;;;;;;;;5011342;28;20030;-65
2023/04/12 01:05:13;;;;;;;16.77;9.10;;;;;;;;;;5010866;28;20394;-66
2023/04/12 01:07:53;;;;;;;17.95;9.20;;;;;;;;;;5010211;28;20041;-67
2023/04/12 01:10:19;;;;;;;15.98;8.65;;;;;;;;;;5011495;28;20034;-66
2023/04/12 01:12:48;;;;;;;17.65;9.45;;;;;;;;;;5009878;28;20398;-66
2023/04/12 01:15:15;;;;;;;16.65;8.80;;;;;;;;;;5009341;28;20145;-65
2023/04/12 01:17:45;;;;;;;18.77;9.45;;;;;;;;;;5010355;28;20451;-66
2023/04/12 01:20:15;;;;;;;15.57;8.75;;;;;;;;;;5011578;28;20371;-66
2023/04/12 01:22:45;;;;;;;18.52;9.20;;;;;;;;;;5009637;28;20366;-65
2023/04/12 01:25:15;;;;;;;17.73;8.80;;;;;;;;;;5009183;28;20054;-65
2023/04/12 01:27:52;;;;;;;19.95;9.30;;;;;;;;;;5009998;28;20383;-66
2023/04/12 01:30:19;;;;;;;18.20;9.37;;;;;;;;;;5009958;28;20037;-65
2023/04/12 01:32:48;;;;;;;16.40;8.82;;;;;;;;;;5010870;28;20293;-66
2023/04/12 01:35:14;;;;;;;;;;;;;;;;;;5011032;28;20052;-65
2023/04/12 01:37:40;;;;;;;16.13;8.57;;;;;;;;;;5011308;28;20341;-65
2023/04/12 01:40:08;;;;;;;18.75;9.48;;;;;;;;;;5011100;28;20037;-65
2023/04/12 01:42:34;;;;;;;16.80;8.82;;;;;;;;;;5009850;28;20049;-66
2023/04/12 01:45:00;;;;;;;18.00;8.80;;;;;;;;;;5014844;28;20026;-70
2023/04/12 01:47:27;;;;;;;18.00;9.27;;;;;;;;;;5021187;28;20029;-65
2023/04/12 01:50:04;;;;;;;18.10;9.70;;;;;;;;;;5020408;28;20022;-66
2023/04/12 01:52:31;;;;;;;17.48;9.23;;;;;;;;;;5024909;28;20036;-67
2023/04/12 01:54:57;;;;;;;18.15;9.02;;;;;;;;;;5020918;28;20088;-66
2023/04/12 01:57:24;;;;;;;17.13;8.98;;;;;;;;;;5021918;28;20014;-65
2023/04/12 01:59:51;;;;;;;19.67;9.60;;;;;;;;;;5021968;28;20032;-65
2023/04/12 02:02:17;;;;;;;17.38;8.93;;;;;;;;;;5030523;28;20493;-65
2023/04/12 02:04:43;;;;;;;18.23;9.57;;;;;;;;;;5029350;28;20561;-65
2023/04/12 02:07:10;;;;;;;17.27;9.15;;;;;;;;;;5030299;28;20108;-65
2023/04/12 02:09:40;;;;;;;21.40;9.18;;;;;;;;;;5030341;28;20088;-64
2023/04/12 02:12:06;;;;;;;18.88;9.52;;;;;;;;;;5030141;28;20033;-65
2023/04/12 02:14:32;;;;;;;19.55;8.85;;;;;;;;;;5029772;28;20053;-65
2023/04/12 02:17:00;;;;;;;16.90;8.52;;;;;;;;;;5029676;28;20390;-65
2023/04/12 02:19:27;;;;;;;17.10;8.50;;;;;;;;;;5030994;28;20044;-64
2023/04/12 02:21:53;;;;;;;17.55;9.50;;;;;;;;;;5030739;28;20018;-65
2023/04/12 02:24:19;;;;;;;19.65;8.75;;;;;;;;;;5030149;28;20079;-66
2023/04/12 02:26:45;;;;;;;17.58;8.50;;;;;;;;;;5018826;28;20024;-65
2023/04/12 02:29:11;;;;;;;19.85;8.48;;;;;;;;;;5012046;28;20080;-65
2023/04/12 02:31:38;;;;;;;16.17;8.10;;;;;;;;;;5017101;28;20026;-67
2023/04/12 02:34:04;;;;;;;18.02;8.18;;;;;;;;;;5009723;28;20026;-66
2023/04/12 02:36:30;;;;;;;17.15;8.70;;;;;;;;;;5010532;28;20053;-65
2023/04/12 02:38:57;;;;;;;22.10;9.13;;;;;;;;;;5020160;28;20013;-66
2023/04/12 02:41:23;;;;;;;19.17;8.73;;;;;;;;;;5028975;28;20026;-65
2023/04/12 02:43:49;;;;;;;16.75;8.48;;;;;;;;;;5029542;28;20033;-65
2023/04/12 02:46:18;;;;;;;16.83;8.57;;;;;;;;;;5028674;28;20083;-65
2023/04/12 02:48:44;;;;;;;;;;;;;;;;;;5030356;28;20079;-67
2023/04/12 02:51:10;;;;;;;16.42;8.60;;;;;;;;;;5028566;28;20361;-67
2023/04/12 02:53:36;;;;;;;18.88;8.52;;;;;;;;;;5021106;28;20044;-67
2023/04/12 02:56:05;;;;;;;16.25;8.85;;;;;;;;;;5017127;28;20475;-65
2023/04/12 02:58:32;;;;;;;18.98;8.70;;;;;;;;;;5012596;28;20076;-66
2023/04/12 03:00:59;;;;;;;16.15;8.18;;;;;;;;;;5013840;28;20100;-67
2023/04/12 03:03:27;;;;;;;16.73;8.30;;;;;;;;;;5013103;28;20504;-66
2023/04/12 03:05:53;;;;;;;18.23;9.38;;;;;;;;;;5012569;28;20033;-65
2023/04/12 03:08:20;;;;;;;15.80;8.52;;;;;;;;;;5012279;28;20482;-67
2023/04/12 03:10:46;;;;;;;17.50;8.68;;;;;;;;;;5013824;28;20034;-64
2023/04/12 03:13:12;;;;;;;16.30;8.27;;;;;;;;;;5013564;28;20033;-65
2023/04/12 03:15:38;;;;;;;18.05;8.20;;;;;;;;;;5012883;28;20430;-66
2023/04/12 03:18:04;;;;;;;17.45;8.60;;;;;;;;;;5012370;28;20060;-66
2023/04/12 03:20:30;;;;;;;16.15;7.90;;;;;;;;;;5012048;28;20053;-66
2023/04/12 03:22:56;;;;;;;17.40;8.10;;;;;;;;;;5013099;28;20108;-65
2023/04/12 03:25:22;;;;;;;17.42;8.50;;;;;;;;;;5012768;28;20028;-66
2023/04/12 03:27:48;;;;;;;15.45;7.85;;;;;;;;;;5013275;28;20034;-65
2023/04/12 03:30:14;;;;;;;15.68;7.60;;;;;;;;;;5012831;28;20030;-68
2023/04/12 03:32:41;;;;;;;14.82;7.47;;;;;;;;;;5012694;28;20041;-67
2023/04/12 03:35:07;;;;;;;14.98;7.85;;;;;;;;;;5012526;28;20482;-64
2023/04/12 03:37:34;;;;;;;16.13;8.50;;;;;;;;;;5011603;28;20030;-66
2023/04/12 03:40:00;;;;;;;17.60;7.80;;;;;;;;;;5012810;28;20026;-66
2023/04/12 03:42:27;;;;;;;15.98;8.38;;;;;;;;;;5012624;28;20049;-65
2023/04/12 03:44:53;;;;;;;17.15;8.32;;;;;;;;;;5012058;28;20049;-66
2023/04/12 03:47:19;;;;;;;15.27;7.90;;;;;;;;;;5012484;28;20140;-66
2023/04/12 03:49:48;;;;;;;16.52;8.57;;;;;;;;;;5012561;28;20034;-65
2023/04/12 03:52:14;;;;;;;17.40;8.80;;;;;;;;;;5012284;28;20041;-65
2023/04/12 03:54:40;;;;;;;16.42;7.97;;;;;;;;;;5010717;28;20028;-65
2023/04/12 03:57:06;;;;;;;17.15;8.32;;;;;;;;;;5012642;28;20066;-66
2023/04/12 03:59:32;;;;;;;17.70;8.10;;;;;;;;;;5011216;28;20026;-65
2023/04/12 04:02:00;;;;;;;19.05;8.20;;;;;;;;;;5012508;28;20350;-66
2023/04/12 04:04:26;;;;;;;14.90;8.30;;;;;;;;;;5011990;28;20026;-66
2023/04/12 04:06:52;;;;;;;15.35;8.35;;;;;;;;;;5011775;28;20018;-67
2023/04/12 04:09:18;;;;;;;16.40;8.15;;;;;;;;;;5011520;28;20026;-65
2023/04/12 04:11:45;;;;;;;17.52;8.60;;;;;;;;;;5012099;28;20025;-66
2023/04/12 04:14:11;;;;;;;17.15;8.65;;;;;;;;;;5011302;28;20030;-68
2023/04/12 04:16:37;;;;;;;15.32;8.25;;;;;;;;;;5012439;28;20029;-66
2023/04/12 04:19:03;;;;;;;18.30;9.07;;;;;;;;;;5012097;28;20018;-65
2023/04/12 04:21:31;;;;;;;15.50;8.52;;;;;;;;;;5010801;28;20116;-66
2023/04/12 04:23:59;;;;;;;17.35;8.77;;;;;;;;;;5011496;28;20029;-66
2023/04/12 04:26:31;;;;;;;16.90;9.23;;;;;;;;;;5012225;28;20104;-65
2023/04/12 04:29:00;;;;;;;15.63;8.30;;;;;;;;;;5012310;28;20033;-66
2023/04/12 04:31:26;;;;;;;16.95;8.95;;;;;;;;;;5012206;28;20128;-66
2023/04/12 04:33:53;;;;;;;15.77;8.93;;;;;;;;;;5011315;28;20117;-66
2023/04/12 04:36:19;;;;;;;19.58;8.98;;;;;;;;;;5012010;28;20097;-65
2023/04/12 04:38:47;;;;;;;17.10;8.82;;;;;;;;;;5010695;28;20516;-65
2023/04/12 04:41:12;;;;;;;21.60;9.07;;;;;;;;;;5011833;28;20028;-68
2023/04/12 04:43:39;;;;;;;16.65;9.30;;;;;;;;;;5011320;28;20483;-67
2023/04/12 04:46:07;;;;;;;15.85;8.63;;;;;;;;;;5011619;28;20042;-65
2023/04/12 04:48:33;;;;;;;16.13;9.00;;;;;;;;;;5010417;28;20037;-64
2023/04/12 04:51:00;;;;;;;15.50;8.80;;;;;;;;;;5011908;28;20033;-67
2023/04/12 04:53:26;;;;;;;15.88;8.88;;;;;;;;;;5010571;28;20030;-66
2023/04/12 04:55:59;;;;;;;16.35;8.95;;;;;;;;;;5011321;28;20391;-66
2023/04/12 04:58:25;;;;;;;18.02;9.10;;;;;;;;;;5011651;28;20164;-67
2023/04/12 05:00:54;;;;;;;16.20;9.05;;;;;;;;;;5011406;28;20026;-66
2023/04/12 05:03:20;;;;;;;17.63;9.35;;;;;;;;;;5009750;28;20030;-66
2023/04/12 05:05:48;;;;;;;16.38;8.98;;;;;;;;;;5011274;28;20026;-66
2023/04/12 05:08:14;;;;;;;14.98;8.75;;;;;;;;;;5011228;28;20052;-66
2023/04/12 05:10:40;;;;;;;16.33;9.40;;;;;;;;;;5011142;28;20026;-67
2023/04/12 05:13:06;;;;;;;20.55;10.38;;;;;;;;;;5010193;28;20056;-66
2023/04/12 05:15:32;;;;;;;18.02;9.10;;;;;;;;;;5009656;28;20018;-66
2023/04/12 05:17:58;;;;;;;17.08;9.00;;;;;;;;;;5010829;28;20316;-66
2023/04/12 05:20:24;;;;;;;16.73;8.93;;;;;;;;;;5009324;28;20046;-66
2023/04/12 05:22:50;;;;;;;16.45;9.15;;;;;;;;;;5011342;28;20483;-67
2023/04/12 05:25:16;;;;;;;16.73;8.80;;;;;;;;;;5016046;28;20080;-66
2023/04/12 05:27:44;;;;;;;17.50;9.00;;;;;;;;;;5012501;28;20129;-66
2023/04/12 05:30:10;;;;;;;14.73;8.60;;;;;;;;;;5011021;28;20419;-65
2023/04/12 05:32:36;;;;;;;18.30;9.30;;;;;;;;;;5010685;28;20076;-65
2023/04/12 05:35:02;;;;;;;19.10;9.20;;;;;;;;;;5010069;28;20049;-63
2023/04/12 05:37:28;;;;;;;15.70;9.02;;;;;;;;;;5010807;28;20371;-66
2023/04/12 05:39:54;;;;;;;17.45;9.02;;;;;;;;;;5010478;28;20049;-67
2023/04/12 05:42:20;;;;;;;17.77;9.65;;;;;;;;;;5010582;28;20034;-65
2023/04/12 05:44:48;;;;;;;16.98;9.20;;;;;;;;;;5009854;28;20030;-65
2023/04/12 05:47:14;;;;;;;15.93;9.60;;;;;;;;;;5010515;28;20699;-67
2023/04/12 05:49:40;;;;;;;14.93;8.98;;;;;;;;;;5013088;28;20115;-64
2023/04/12 05:52:06;;;;;;;15.93;8.80;;;;;;;;;;5015620;28;20500;-64
2023/04/12 05:54:32;;;;;;;16.02;9.10;;;;;;;;;;5068093;23;20037;-59
2023/04/12 05:56:58;;;;;;;16.20;8.90;;;;;;;;;;5072827;28;20043;-62
2023/04/12 05:59:24;;;;;;;17.63;9.60;;;;;;;;;;5071813;28;20017;-61
2023/04/12 06:01:50;;;;;;;16.40;9.52;;;;;;;;;;5071997;28;20028;-63
2023/04/12 06:04:16;;;;;;;16.33;9.68;;;;;;;;;;5078901;28;20024;-61
2023/04/12 06:06:42;;;;;;;17.20;9.88;;;;;;;;;;5075533;28;20046;-63
2023/04/12 06:09:08;;;;;;;16.52;10.20;;;;;;;;;;5087730;28;20019;-63
2023/04/12 06:11:34;;;;;;;16.33;10.32;;;;;;;;;;5092047;28;20060;-63
2023/04/12 06:14:01;;;;;;;19.02;11.02;;;;;;;;;;5087464;28;20024;-64
2023/04/12 06:16:27;;;;;;;16.15;10.48;;;;;;;;;;5091742;28;20031;-62
2023/04/12 06:18:53;;;;;;;16.25;11.00;;;;;;;;;;5092804;28;20442;-61
2023/04/12 06:21:19;;;;;;;16.02;11.65;;;;;;;;;;5075340;28;20017;-62
2023/04/12 06:23:45;;;;;;;18.35;12.10;;;;;;;;;;5092374;28;20473;-63
2023/04/12 06:26:11;;;;;;;17.33;12.75;;;;;;;;;;5074325;28;20042;-65
2023/04/12 06:28:37;;;;;;;17.58;14.90;;;;;;;;;;5092240;28;20034;-64
2023/04/12 06:31:03;;;;;;;19.45;15.15;;;;;;;;;;5092894;28;20050;-63
2023/04/12 06:33:29;;;;;;;20.63;15.15;;;;;;;;;;5094957;28;20020;-65
2023/04/12 06:35:55;;;;;;;17.52;15.63;;;;;;;;;;5095524;28;20024;-63
2023/04/12 06:38:21;;;;;;;20.90;18.80;;;;;;;;;;5095766;28;20024;-60
2023/04/12 06:40:47;;;;;;;21.25;19.00;;;;;;;;;;5077298;28;20020;-64
2023/04/12 06:43:14;;;;;;;20.77;18.77;;;;;;;;;;5094513;28;20046;-64
2023/04/12 06:45:40;;;;;;;21.67;18.40;;;;;;;;;;5077235;28;20055;-62
2023/04/12 06:48:06;;;;;;;19.90;17.90;;;;;;;;;;5077045;28;20066;-62
2023/04/12 06:50:33;;;;;;;20.00;17.65;;;;;;;;;;5094885;28;20028;-63
2023/04/12 06:52:59;;;;;;;19.30;17.40;;;;;;;;;;5076367;28;20024;-61
2023/04/12 06:55:27;;;;;;;19.20;17.10;;;;;;;;;;5076139;28;20035;-58
2023/04/12 06:57:53;;;;;;;19.73;17.40;;;;;;;;;;5076874;28;20017;-59
2023/04/12 07:00:20;;;;;;;21.25;18.23;;;;;;;;;;5084932;28;20049;-60
2023/04/12 07:02:46;;;;;;;20.10;17.23;;;;;;;;;;5091288;28;20032;-61
2023/04/12 07:05:12;;;;;;;18.92;16.92;;;;;;;;;;5093412;28;20035;-61
2023/04/12 07:07:38;;;;;;;18.83;16.60;;;;;;;;;;5095775;28;20030;-60
2023/04/12 07:10:05;;;;;;;18.63;16.20;;;;;;;;;;5094703;28;20518;-60
2023/04/12 07:12:31;;;;;;;18.42;16.25;;;;;;;;;;5093419;28;20124;-62
2023/04/12 07:14:57;;;;;;;17.95;16.05;;;;;;;;;;5094366;28;20095;-63
2023/04/12 07:17:25;;;;;;;19.27;15.63;;;;;;;;;;5094682;28;20027;-64
2023/04/12 07:19:52;;;;;;;19.75;16.42;;;;;;;;;;5093210;28;20097;-61
2023/04/12 07:22:18;;;;;;;17.90;16.00;;;;;;;;;;5095365;28;20047;-63
2023/04/12 07:24:44;;;;;;;18.30;15.65;;;;;;;;;;5092560;28;20020;-63
2023/04/12 07:27:10;;;;;;;17.77;15.63;;;;;;;;;;5095507;28;20384;-64
2023/04/12 07:29:36;;;;;;;21.90;15.77;;;;;;;;;;5081228;28;20498;-63
2023/04/12 07:32:03;;;;;;;17.55;15.63;;;;;;;;;;5077009;28;20036;-63
2023/04/12 07:34:29;;;;;;;18.92;15.00;;;;;;;;;;5093426;28;20012;-65
2023/04/12 07:36:56;;;;;;;17.08;14.80;;;;;;;;;;5094745;28;20647;-61
2023/04/12 07:39:22;;;;;;;18.65;15.40;;;;;;;;;;5093147;28;20028;-64
2023/04/12 07:41:49;;;;;;;18.90;14.85;;;;;;;;;;5092559;28;20090;-63
2023/04/12 07:44:16;;;;;;;16.10;13.88;;;;;;;;;;5078630;28;20075;-63
2023/04/12 07:46:42;;;;;;;17.88;13.75;;;;;;;;;;5090747;28;20119;-62
2023/04/12 07:49:09;;;;;;;17.75;13.80;;;;;;;;;;5094548;28;20117;-61
2023/04/12 07:51:35;;;;;;;16.77;14.10;;;;;;;;;;5093103;28;20031;-64
2023/04/12 07:54:02;;;;;;;17.13;14.52;;;;;;;;;;5091893;28;20396;-63
2023/04/12 07:56:28;;;;;;;17.65;14.98;;;;;;;;;;5093192;28;20023;-63
2023/04/12 07:58:54;;;;;;;15.63;13.65;;;;;;;;;;5094522;28;20047;-62
2023/04/12 08:01:20;;;;;;;17.58;14.55;;;;;;;;;;5092946;28;20024;-63
2023/04/12 08:03:46;;;;;;;16.40;14.45;;;;;;;;;;5093401;28;20039;-63
2023/04/12 08:06:12;;;;;;;16.60;14.77;;;;;;;;;;5094594;28;20488;-60
2023/04/12 08:08:39;;;;;;;17.08;14.75;;;;;;;;;;5094079;28;20039;-63
2023/04/12 08:11:05;;;;;;;17.25;15.18;;;;;;;;;;5095912;28;20480;-67
2023/04/12 08:13:32;;;;;;;17.48;14.38;;;;;;;;;;5094318;28;20035;-63
2023/04/12 08:15:58;;;;;;;16.75;14.50;;;;;;;;;;5098177;28;20024;-63
2023/04/12 08:18:25;;;;;;;16.73;14.60;;;;;;;;;;5100357;28;20050;-63
2023/04/12 08:20:51;;;;;;;17.02;14.93;;;;;;;;;;5100349;28;20031;-65
2023/04/12 08:23:17;;;;;;;16.55;13.80;;;;;;;;;;5096505;28;20396;-63
2023/04/12 08:25:43;;;;;;;16.90;13.48;;;;;;;;;;5096927;28;20081;-63
2023/04/12 08:28:09;;;;;;;15.73;13.50;;;;;;;;;;5094194;28;20028;-64
2023/04/12 08:30:36;;;;;;;17.50;14.05;;;;;;;;;;5098957;28;20028;-64
2023/04/12 08:33:02;;;;;;;16.95;14.13;;;;;;;;;;5081683;28;20060;-61
2023/04/12 08:35:28;;;;;;;16.10;13.95;;;;;;;;;;5102138;28;20024;-60
2023/04/12 08:37:55;;;;;;;16.95;14.02;;;;;;;;;;5090681;28;20442;-61
2023/04/12 08:40:21;;;;;;;18.30;14.40;;;;;;;;;;5079118;28;20176;-60
2023/04/12 08:42:47;;;;;;;16.55;14.43;;;;;;;;;;5057709;28;20170;-63
2023/04/12 08:45:13;;;;;;;17.73;15.82;;;;;;;;;;5062365;28;20024;-63
2023/04/12 08:47:40;;;;;;;18.38;16.33;;;;;;;;;;5076380;28;20024;-60
2023/04/12 08:50:08;;;;;;;19.25;17.25;;;;;;;;;;5094961;28;20028;-63
2023/04/12 08:52:34;;;;;;;20.40;18.20;;;;;;;;;;5095499;28;20066;-62
2023/04/12 08:55:04;;;;;;;20.85;18.85;;;;;;;;;;5059192;28;20029;-62
2023/04/12 08:57:33;;;;;;;21.50;19.40;;;;;;;;;;5056518;28;20480;-59
2023/04/12 09:00:00;;;;;;;23.67;21.67;;;;;;;;;;5057874;28;20115;-63
2023/04/12 09:02:30;;;;;;;28.27;26.08;;;;;;;;;;5069432;28;20020;-62
2023/04/12 09:04:57;;;;;;;29.95;27.50;;;;;;;;;;5092023;28;20020;-63
2023/04/12 09:07:26;;;;;;;32.40;30.00;;;;;;;;;;5093146;28;20055;-64
2023/04/12 09:09:52;;;;;;;31.13;28.73;;;;;;;;;;5083653;28;20016;-64
2023/04/12 09:12:21;;;;;;;30.10;27.80;;;;;;;;;;5088874;28;20495;-64
2023/04/12 09:14:47;;;;;;;37.30;34.55;;;;;;;;;;5066185;28;20028;-64
2023/04/12 09:17:23;;;;;;;36.72;33.92;;;;;;;;;;5093327;28;20054;-64
2023/04/12 09:19:54;;;;;;;36.30;33.60;;;;;;;;;;5094380;28;20035;-64
2023/04/12 09:22:32;;;;;;;33.97;31.38;;;;;;;;;;5092996;28;20032;-65
2023/04/12 09:24:59;;;;;;;35.60;32.05;;;;;;;;;;5094377;28;20027;-62
2023/04/12 09:27:28;;;;;;;32.70;29.85;;;;;;;;;;5092728;28;20054;-63
2023/04/12 09:30:10;;;;;;;31.02;28.58;;;;;;;;;;5091523;28;20050;-65
2023/04/12 09:32:36;;;;;;;29.10;26.67;;;;;;;;;;5090937;28;20129;-64
2023/04/12 09:35:04;;;;;;;29.15;26.75;;;;;;;;;;5091803;28;20035;-64
2023/04/12 09:37:30;;;;;;;29.30;27.00;;;;;;;;;;5092944;28;20016;-63
2023/04/12 09:40:03;;;;;;;29.20;26.88;;;;;;;;;;5092626;28;20078;-64
2023/04/12 09:42:30;;;;;;;29.35;27.02;;;;;;;;;;5074827;28;20061;-64
2023/04/12 09:44:56;;;;;;;29.93;27.60;;;;;;;;;;4730417;28;10000519;-64
2023/04/12 09:47:24;;;;;;;29.42;27.10;;;;;;;;;;5072899;28;20030;-66
2023/04/12 09:49:50;;;;;;;29.00;26.60;;;;;;;;;;5072942;28;20067;-63
2023/04/12 09:52:16;;;;;;;29.77;27.27;;;;;;;;;;5070291;28;20121;-65
2023/04/12 09:54:47;;;;;;;30.60;28.10;;;;;;;;;;5068387;28;20484;-63
2023/04/12 09:57:18;;;;;;;31.08;28.67;;;;;;;;;;5069497;28;20033;-65
2023/04/12 09:59:44;;;;;;;30.95;28.45;;;;;;;;;;5069413;28;20024;-65
2023/04/12 10:02:17;;;;;;;31.17;28.77;;;;;;;;;;5069681;28;20029;-63
2023/04/12 10:04:44;;;;;;;34.45;30.83;;;;;;;;;;5070015;28;20328;-63
2023/04/12 10:07:10;;;;;;;34.65;32.05;;;;;;;;;;5055019;28;20031;-64
2023/04/12 10:09:40;;;;;;;35.08;32.28;;;;;;;;;;5073665;28;20020;-64
2023/04/12 10:12:07;;;;;;;34.45;31.75;;;;;;;;;;5054970;28;20074;-63
2023/04/12 10:14:33;;;;;;;34.28;31.58;;;;;;;;;;5054095;28;20035;-59
2023/04/12 10:17:00;;;;;;;34.92;32.33;;;;;;;;;;5055028;28;20069;-63
2023/04/12 10:19:36;;;;;;;35.15;32.45;;;;;;;;;;5068385;28;20020;-63
2023/04/12 10:22:02;;;;;;;35.35;32.70;;;;;;;;;;5092932;28;20438;-63
2023/04/12 10:24:28;;;;;;;35.35;32.65;;;;;;;;;;5073837;28;20057;-63
2023/04/12 10:26:59;;;;;;;34.65;32.05;;;;;;;;;;5093258;28;20032;-63
2023/04/12 10:29:27;;;;;;;34.70;32.00;;;;;;;;;;5095485;28;20028;-63
2023/04/12 10:31:55;;;;;;;36.95;34.15;;;;;;;;;;5095851;28;20027;-63
2023/04/12 10:34:27;;;;;;;35.85;33.15;;;;;;;;;;5094639;28;20028;-62
2023/04/12 10:36:55;;;;;;;34.47;31.73;;;;;;;;;;5097758;28;20024;-63
2023/04/12 10:39:41;;;;;;;33.37;30.77;;;;;;;;;;5097713;28;20024;-64
2023/04/12 10:42:17;;;;;;;34.80;32.00;;;;;;;;;;5095849;28;20016;-63
2023/04/12 10:44:43;;;;;;;34.08;31.40;;;;;;;;;;5075747;28;20042;-64
2023/04/12 10:47:10;;;;;;;32.85;30.15;;;;;;;;;;5095283;28;20017;-65
2023/04/12 10:49:36;;;;;;;33.33;30.63;;;;;;;;;;5077124;28;20035;-63
2023/04/12 10:52:09;;;;;;;32.72;30.05;;;;;;;;;;5095182;28;20031;-64
2023/04/12 10:54:35;;;;;;;31.83;29.23;;;;;;;;;;5094980;28;20114;-63
2023/04/12 10:57:02;;;;;;;32.08;29.58;;;;;;;;;;5096698;28;20031;-64
2023/04/12 10:59:47;;;;;;;31.08;28.58;;;;;;;;;;5095521;28;20103;-63
2023/04/12 11:02:14;;;;;;;31.85;29.35;;;;;;;;;;5094731;28;20088;-62
2023/04/12 11:05:00;;;;;;;31.70;29.20;;;;;;;;;;5076156;28;20024;-63
2023/04/12 11:07:38;;;;;;;31.55;28.95;;;;;;;;;;5077177;28;20050;-64
2023/04/12 11:10:12;;;;;;;32.72;30.13;;;;;;;;;;5095346;28;20046;-63
2023/04/12 11:12:38;;;;;;;31.23;28.75;;;;;;;;;;5077262;28;20035;-64
2023/04/12 11:15:05;;;;;;;32.50;29.80;;;;;;;;;;5077885;28;20476;-64
2023/04/12 11:17:31;;;;;;;31.98;29.48;;;;;;;;;;5077052;28;20432;-65
2023/04/12 11:19:59;;;;;;;29.63;27.23;;;;;;;;;;5076710;28;20476;-66
2023/04/12 11:22:28;;;;;;;29.52;26.98;;;;;;;;;;5095322;28;20024;-65
2023/04/12 11:24:55;;;;;;;28.83;26.50;;;;;;;;;;5094311;28;20020;-64
2023/04/12 11:27:21;;;;;;;27.77;25.30;;;;;;;;;;5095508;28;20045;-66
2023/04/12 11:29:48;;;;;;;25.52;23.33;;;;;;;;;;5076733;28;20024;-63
2023/04/12 11:32:15;;;;;;;26.02;23.83;;;;;;;;;;5095009;28;20020;-64
2023/04/12 11:34:41;;;;;;;24.55;22.35;;;;;;;;;;4739366;28;9999628;-65
2023/04/12 11:37:08;;;;;;;25.92;23.73;;;;;;;;;;5082294;28;20549;-65
2023/04/12 11:39:44;;;;;;;25.00;22.90;;;;;;;;;;5091772;28;20031;-63
2023/04/12 11:42:14;;;;;;;24.83;22.67;;;;;;;;;;5091772;28;20028;-66
2023/04/12 11:44:41;;;;;;;25.10;23.00;;;;;;;;;;5071719;28;20520;-65
2023/04/12 11:47:13;;;;;;;25.65;23.45;;;;;;;;;;5081413;28;20043;-65
2023/04/12 11:49:43;;;;;;;26.75;24.45;;;;;;;;;;5073630;28;20024;-65
2023/04/12 11:52:09;;;;;;;27.33;25.02;;;;;;;;;;5091444;28;20070;-66
2023/04/12 11:54:35;;;;;;;27.95;25.55;;;;;;;;;;5078707;22;20421;-65
2023/04/12 11:57:01;;;;;;;28.80;26.50;;;;;;;;;;5029355;28;20033;-65
2023/04/12 11:59:34;;;;;;;29.52;27.08;;;;;;;;;;5027764;28;20116;-65
2023/04/12 12:02:03;;;;;;;30.80;28.05;;;;;;;;;;5013455;28;20021;-65
2023/04/12 12:04:30;;;;;;;32.78;30.17;;;;;;;;;;5028321;28;20083;-65
2023/04/12 12:07:00;;;;;;;36.25;33.50;;;;;;;;;;5028976;28;20390;-65
2023/04/12 12:09:26;;;;;;;35.92;33.22;;;;;;;;;;5029429;28;20036;-64
2023/04/12 12:11:53;;;;;;;34.25;31.55;;;;;;;;;;5029017;28;20028;-65
2023/04/12 12:14:23;;;;;;;31.52;29.13;;;;;;;;;;5027408;28;20022;-65
2023/04/12 12:16:55;;;;;;;30.55;27.92;;;;;;;;;;5029005;28;20031;-65
2023/04/12 12:19:32;;;;;;;28.85;26.45;;;;;;;;;;5027868;28;20363;-65
2023/04/12 12:22:05;;;;;;;27.83;25.52;;;;;;;;;;5027447;28;20025;-65
2023/04/12 12:24:31;;;;;;;25.80;23.70;;;;;;;;;;5027356;28;20398;-65
2023/04/12 12:27:01;;;;;;;25.30;23.20;;;;;;;;;;5027287;28;20180;-64
2023/04/12 12:29:33;;;;;;;24.58;22.40;;;;;;;;;;5027529;28;20113;-64
2023/04/12 12:32:05;;;;;;;23.23;21.23;;;;;;;;;;5028755;28;20091;-64
2023/04/12 12:34:34;;;;;;;22.65;20.65;;;;;;;;;;5024747;28;20029;-64
2023/04/12 12:37:00;;;;;;;22.23;20.23;;;;;;;;;;5028305;28;20032;-66
2023/04/12 12:39:26;;;;;;;22.35;20.15;;;;;;;;;;5027383;28;20126;-65
2023/04/12 12:41:54;;;;;;;22.25;20.05;;;;;;;;;;5028695;28;20024;-66
2023/04/12 12:44:20;;;;;;;19.90;18.00;;;;;;;;;;5030754;28;20449;-65
2023/04/12 12:46:46;;;;;;;19.60;17.77;;;;;;;;;;5030888;28;20056;-65
2023/04/12 12:49:12;;;;;;;20.38;18.48;;;;;;;;;;5031154;28;20030;-65
2023/04/12 12:51:38;;;;;;;20.13;18.13;;;;;;;;;;5031109;28;20022;-64
2023/04/12 12:54:04;;;;;;;19.33;17.33;;;;;;;;;;5030021;28;20119;-65
2023/04/12 12:56:30;;;;;;;16.98;15.18;;;;;;;;;;5031039;28;20017;-64
2023/04/12 12:58:56;;;;;;;15.57;13.00;;;;;;;;;;5031189;28;20117;-64
2023/04/12 13:01:22;;;;;;;15.68;12.63;;;;;;;;;;5030992;28;20524;-65
2023/04/12 13:03:48;;;;;;;16.60;13.35;;;;;;;;;;5030095;28;20025;-65
2023/04/12 13:06:14;;;;;;;15.85;12.80;;;;;;;;;;5030460;28;20033;-65
2023/04/12 13:08:40;;;;;;;15.50;13.30;;;;;;;;;;5030454;28;20040;-63
2023/04/12 13:11:07;;;;;;;16.10;12.98;;;;;;;;;;5030881;28;20037;-63
2023/04/12 13:13:33;;;;;;;15.60;12.80;;;;;;;;;;5029525;28;20108;-63
2023/04/12 13:15:59;;;;;;;14.60;10.70;;;;;;;;;;5030792;28;20451;-66
2023/04/12 13:18:25;;;;;;;14.40;10.15;;;;;;;;;;5012836;28;20021;-61
2023/04/12 13:20:51;;;;;;;15.02;10.00;;;;;;;;;;4680837;28;10000445;-61
2023/04/12 13:23:17;;;;;;;16.98;9.95;;;;;;;;;;5027173;28;20025;-61
2023/04/12 13:25:43;;;;;;;15.57;9.55;;;;;;;;;;5010906;28;20069;-61
2023/04/12 13:28:11;;;;;;;16.70;9.68;;;;;;;;;;5029874;28;20432;-60
2023/04/12 13:30:37;;;;;;;17.08;10.10;;;;;;;;;;4995231;28;20104;-67
2023/04/12 13:33:03;;;;;;;16.70;10.50;;;;;;;;;;5024142;28;20149;-64
2023/04/12 13:35:29;;;;;;;16.65;9.35;;;;;;;;;;5030457;28;20102;-66
2023/04/12 13:37:55;;;;;;;17.20;10.18;;;;;;;;;;5030532;28;20028;-67
2023/04/12 13:40:21;;;;;;;17.13;10.45;;;;;;;;;;5030324;28;20136;-66
2023/04/12 13:42:47;;;;;;;19.63;9.93;;;;;;;;;;5030811;28;20026;-67
2023/04/12 13:45:13;;;;;;;18.20;10.23;;;;;;;;;;5027761;28;20062;-67
2023/04/12 13:47:39;;;;;;;18.25;10.50;;;;;;;;;;5030341;28;20057;-67
2023/04/12 13:50:05;;;;;;;16.50;10.40;;;;;;;;;;5020011;28;20032;-67
2023/04/12 13:52:31;;;;;;;24.50;11.85;;;;;;;;;;5030089;28;20067;-67
2023/04/12 13:54:58;;;;;;;17.73;10.70;;;;;;;;;;5028292;28;20034;-68
2023/04/12 13:57:24;;;;;;;19.42;10.70;;;;;;;;;;5028999;28;20048;-66
2023/04/12 13:59:50;;;;;;;15.25;10.00;;;;;;;;;;5027499;28;20071;-67
2023/04/12 14:02:16;;;;;;;17.17;10.63;;;;;;;;;;5028852;28;20059;-66
2023/04/12 14:04:52;;;;;;;18.05;10.63;;;;;;;;;;5027364;28;20221;-66
2023/04/12 14:07:18;;;;;;;17.88;10.45;;;;;;;;;;5027381;28;20025;-67
2023/04/12 14:09:44;;;;;;;17.25;10.10;;;;;;;;;;5028660;28;20022;-66
2023/04/12 14:12:10;;;;;;;16.50;10.38;;;;;;;;;;5025150;28;20385;-65
2023/04/12 14:14:36;;;;;;;15.88;10.15;;;;;;;;;;5031246;28;20045;-70
2023/04/12 14:17:02;;;;;;;17.65;9.98;;;;;;;;;;5029898;28;20462;-64
2023/04/12 14:19:28;;;;;;;15.75;10.10;;;;;;;;;;5030114;28;20056;-66
2023/04/12 14:21:54;;;;;;;17.27;11.18;;;;;;;;;;5028766;28;20093;-66
2023/04/12 14:24:21;;;;;;;20.15;11.45;;;;;;;;;;5022287;28;20057;-67